createdAt,value
2019-03-31T00:00:26.892Z,14.73
2019-03-31T00:02:55.881Z,15.35
2019-03-31T00:05:24.886Z,15.38
2019-03-31T00:07:53.947Z,15.90
2019-03-31T00:10:22.852Z,15.38
2019-03-31T00:12:51.976Z,16.40
2019-03-31T00:15:20.861Z,15.75
2019-03-31T00:17:49.755Z,16.02
2019-03-31T00:20:18.975Z,15.18
2019-03-31T00:22:48.054Z,15.90
2019-03-31T00:25:17.237Z,14.83
2019-03-31T00:27:46.298Z,15.30
2019-03-31T00:30:15.298Z,14.95
2019-03-31T00:32:44.493Z,15.83
2019-03-31T00:35:13.486Z,15.08
2019-03-31T00:37:42.574Z,15.72
2019-03-31T00:40:11.736Z,15.70
2019-03-31T00:42:40.850Z,14.87
2019-03-31T00:45:09.694Z,16.07
2019-03-31T00:47:38.658Z,15.60
2019-03-31T00:50:07.755Z,15.93
2019-03-31T00:52:36.991Z,15.18
2019-03-31T00:55:06.111Z,16.12
2019-03-31T00:57:35.197Z,16.37
2019-03-31T01:00:07.362Z,16.17
2019-03-31T01:02:36.315Z,16.65
2019-03-31T01:05:06.606Z,16.85
2019-03-31T01:07:35.400Z,16.85
2019-03-31T01:10:04.502Z,16.32
2019-03-31T01:12:33.735Z,17.17
2019-03-31T01:15:05.727Z,16.45
2019-03-31T01:17:34.731Z,16.85
2019-03-31T01:20:04.282Z,15.20
2019-03-31T01:22:33.317Z,16.62
2019-03-31T01:25:02.396Z,17.30
2019-03-31T01:27:31.526Z,16.55
2019-03-31T01:30:00.608Z,16.67
2019-03-31T01:32:29.791Z,16.60
2019-03-31T01:34:58.664Z,17.98
2019-03-31T01:37:27.878Z,19.40
2019-03-31T01:39:56.856Z,20.40
2019-03-31T01:42:25.715Z,19.00
2019-03-31T01:44:54.595Z,18.23
2019-03-31T01:47:23.694Z,17.55
2019-03-31T01:49:52.732Z,17.62
2019-03-31T01:52:21.795Z,17.57
2019-03-31T01:54:50.952Z,18.02
2019-03-31T01:57:19.964Z,19.02
2019-03-31T01:59:49.028Z,18.75
2019-03-31T02:02:19.535Z,18.25
2019-03-31T02:04:48.474Z,18.82
2019-03-31T02:07:17.475Z,21.20
2019-03-31T02:09:46.402Z,21.30
2019-03-31T02:12:15.487Z,23.32
2019-03-31T02:14:44.564Z,26.90
2019-03-31T02:17:13.759Z,23.18
2019-03-31T02:19:42.746Z,22.07
2019-03-31T02:22:11.625Z,24.18
2019-03-31T02:24:40.564Z,29.15
2019-03-31T02:27:09.548Z,26.17
2019-03-31T02:29:38.547Z,30.72
2019-03-31T02:32:22.564Z,30.80
2019-03-31T02:34:38.419Z,28.75
2019-03-31T02:37:07.286Z,33.98
2019-03-31T02:39:36.434Z,32.60
2019-03-31T02:42:05.476Z,35.88
2019-03-31T02:44:34.437Z,35.25
2019-03-31T02:47:03.372Z,35.52
2019-03-31T02:49:32.507Z,33.00
2019-03-31T02:52:01.497Z,36.00
2019-03-31T02:54:30.688Z,36.08
2019-03-31T02:56:59.669Z,36.08
2019-03-31T02:59:29.745Z,37.08
2019-03-31T03:01:58.692Z,35.23
2019-03-31T03:04:27.946Z,34.58
2019-03-31T03:06:57.090Z,34.73
2019-03-31T03:09:26.597Z,35.50
2019-03-31T03:11:56.075Z,38.23
2019-03-31T03:14:25.662Z,34.92
2019-03-31T03:16:54.644Z,36.83
2019-03-31T03:19:23.874Z,35.00
2019-03-31T03:21:52.994Z,32.33
2019-03-31T03:24:22.001Z,33.15
2019-03-31T03:26:51.082Z,35.13
2019-03-31T03:29:20.278Z,34.98
2019-03-31T03:31:49.208Z,34.13
2019-03-31T03:34:18.243Z,34.35
2019-03-31T03:36:47.280Z,32.85
2019-03-31T03:39:16.299Z,34.40
2019-03-31T03:41:45.311Z,36.23
2019-03-31T03:44:14.387Z,35.20
2019-03-31T03:46:43.410Z,34.65
2019-03-31T03:49:12.555Z,33.58
2019-03-31T03:51:41.874Z,34.70
2019-03-31T03:54:11.215Z,33.10
2019-03-31T03:56:40.362Z,34.08
2019-03-31T03:59:09.376Z,35.23
2019-03-31T04:01:38.652Z,36.03
2019-03-31T04:04:07.845Z,37.17
2019-03-31T04:06:36.863Z,35.00
2019-03-31T04:09:06.572Z,35.40
2019-03-31T04:11:35.501Z,35.65
2019-03-31T04:14:04.857Z,34.73
2019-03-31T04:16:33.786Z,34.18
2019-03-31T04:19:02.791Z,37.85
2019-03-31T04:21:31.682Z,35.98
2019-03-31T04:24:00.884Z,35.55
2019-03-31T04:26:29.702Z,35.75
2019-03-31T04:28:58.685Z,34.92
2019-03-31T04:31:27.773Z,38.05
2019-03-31T04:33:56.771Z,34.33
2019-03-31T04:36:25.827Z,37.60
2019-03-31T04:38:54.953Z,35.17
2019-03-31T04:41:24.000Z,37.13
2019-03-31T04:43:52.800Z,39.60
2019-03-31T04:46:21.964Z,40.88
2019-03-31T04:48:50.992Z,38.78
2019-03-31T04:51:20.218Z,36.50
2019-03-31T04:53:49.281Z,38.58
2019-03-31T04:56:18.223Z,38.48
2019-03-31T04:58:47.202Z,34.95
2019-03-31T05:01:16.325Z,36.38
2019-03-31T05:03:45.216Z,39.60
2019-03-31T05:06:14.076Z,36.85
2019-03-31T05:08:43.220Z,36.50
2019-03-31T05:11:12.411Z,37.17
2019-03-31T05:13:41.457Z,42.45
2019-03-31T05:16:10.569Z,40.25
2019-03-31T05:18:39.628Z,34.30
2019-03-31T05:21:08.714Z,35.48
2019-03-31T05:23:37.667Z,36.98
2019-03-31T05:26:06.658Z,33.40
2019-03-31T05:28:35.694Z,32.42
2019-03-31T05:31:04.546Z,33.50
2019-03-31T05:33:33.737Z,34.58
2019-03-31T05:36:02.814Z,37.83
2019-03-31T05:38:31.757Z,34.13
2019-03-31T05:41:00.728Z,36.73
2019-03-31T05:43:29.886Z,35.60
2019-03-31T05:45:58.858Z,34.73
2019-03-31T05:48:27.955Z,38.60
2019-03-31T05:50:57.032Z,39.98
2019-03-31T05:53:26.154Z,38.83
2019-03-31T05:55:55.229Z,33.78
2019-03-31T05:58:24.430Z,33.23
2019-03-31T06:00:53.650Z,36.75
2019-03-31T06:03:22.714Z,33.58
2019-03-31T06:05:51.561Z,35.00
2019-03-31T06:08:20.526Z,30.70
2019-03-31T06:10:49.660Z,30.77
2019-03-31T06:13:18.802Z,31.12
2019-03-31T06:15:47.902Z,30.35
2019-03-31T06:18:16.859Z,31.95
2019-03-31T06:20:46.254Z,31.65
2019-03-31T06:23:15.414Z,34.48
2019-03-31T06:25:44.505Z,32.40
2019-03-31T06:28:13.583Z,30.48
2019-03-31T06:30:42.476Z,31.20
2019-03-31T06:33:11.416Z,29.75
2019-03-31T06:35:40.422Z,28.98
2019-03-31T06:38:09.394Z,27.17
2019-03-31T06:40:38.244Z,29.70
2019-03-31T06:43:07.120Z,28.60
2019-03-31T06:45:37.425Z,25.45
2019-03-31T06:48:06.437Z,26.82
2019-03-31T06:50:35.634Z,29.35
2019-03-31T06:53:04.537Z,27.10
2019-03-31T06:55:33.607Z,26.52
2019-03-31T06:58:02.519Z,27.30
2019-03-31T07:00:31.401Z,26.12
2019-03-31T07:03:00.549Z,25.25
2019-03-31T07:05:29.628Z,25.27
2019-03-31T07:07:58.858Z,26.48
2019-03-31T07:10:27.860Z,25.57
2019-03-31T07:12:59.642Z,26.10
2019-03-31T07:15:27.684Z,26.40
2019-03-31T07:17:56.671Z,26.25
2019-03-31T07:20:25.701Z,23.98
2019-03-31T07:22:54.672Z,25.55
2019-03-31T07:25:23.531Z,24.72
2019-03-31T07:27:52.740Z,25.60
2019-03-31T07:30:21.909Z,25.25
2019-03-31T07:32:50.906Z,23.00
2019-03-31T07:35:20.096Z,25.30
2019-03-31T07:37:48.856Z,22.98
2019-03-31T07:40:20.235Z,24.77
2019-03-31T07:42:51.080Z,26.37
2019-03-31T07:45:20.097Z,23.92
2019-03-31T07:47:48.973Z,25.57
2019-03-31T07:50:18.704Z,26.30
2019-03-31T07:52:47.805Z,27.80
2019-03-31T07:55:16.777Z,23.50
2019-03-31T07:57:45.686Z,23.42
2019-03-31T08:00:17.892Z,25.10
2019-03-31T08:02:46.853Z,24.92
2019-03-31T08:05:15.817Z,28.00
2019-03-31T08:07:44.798Z,25.82
2019-03-31T08:10:13.773Z,24.05
2019-03-31T08:12:42.712Z,25.20
2019-03-31T08:15:11.911Z,24.63
2019-03-31T08:17:42.766Z,23.60
2019-03-31T08:20:13.308Z,25.90
2019-03-31T08:22:42.336Z,23.95
2019-03-31T08:25:11.186Z,25.15
2019-03-31T08:27:40.352Z,24.02
2019-03-31T08:30:10.942Z,26.00
2019-03-31T08:32:40.400Z,24.25
2019-03-31T08:35:09.357Z,24.57
2019-03-31T08:37:38.503Z,24.10
2019-03-31T08:40:09.635Z,23.95
2019-03-31T08:42:38.755Z,25.65
2019-03-31T08:45:07.886Z,20.97
2019-03-31T08:47:37.153Z,24.18
2019-03-31T08:50:07.059Z,22.27
2019-03-31T08:52:35.965Z,20.82
2019-03-31T08:55:05.507Z,21.48
2019-03-31T08:57:34.755Z,21.73
2019-03-31T09:00:04.838Z,19.35
2019-03-31T09:02:35.109Z,18.57
2019-03-31T09:05:06.119Z,20.75
2019-03-31T09:07:35.152Z,19.60
2019-03-31T09:10:07.512Z,20.00
2019-03-31T09:12:37.002Z,20.48
2019-03-31T09:15:08.122Z,19.98
2019-03-31T09:17:37.163Z,18.20
2019-03-31T09:20:07.002Z,17.27
2019-03-31T09:22:35.823Z,17.82
2019-03-31T09:25:05.707Z,16.87
2019-03-31T09:27:34.654Z,18.70
2019-03-31T09:30:05.073Z,17.75
2019-03-31T09:32:34.128Z,20.80
2019-03-31T09:35:03.119Z,18.27
2019-03-31T09:37:32.198Z,21.37
2019-03-31T09:40:01.350Z,19.17
2019-03-31T09:42:30.419Z,17.05
2019-03-31T09:44:59.503Z,19.57
2019-03-31T09:47:28.024Z,17.17
2019-03-31T09:49:57.023Z,17.32
2019-03-31T09:52:26.067Z,15.93
2019-03-31T09:54:54.925Z,16.27
2019-03-31T09:57:24.056Z,17.32
2019-03-31T09:59:53.157Z,15.18
2019-03-31T10:02:22.192Z,16.23
2019-03-31T10:04:51.285Z,16.12
2019-03-31T10:07:23.646Z,13.80
2019-03-31T10:09:51.028Z,13.30
2019-03-31T10:12:20.129Z,14.65
2019-03-31T10:14:49.346Z,13.95
2019-03-31T10:17:18.511Z,14.75
2019-03-31T10:19:47.871Z,13.32
2019-03-31T10:22:16.886Z,13.00
2019-03-31T10:24:45.779Z,12.70
2019-03-31T10:27:14.841Z,12.85
2019-03-31T10:29:43.821Z,12.13
2019-03-31T10:32:12.744Z,13.62
2019-03-31T10:34:41.709Z,13.32
2019-03-31T10:37:10.778Z,13.70
2019-03-31T10:39:39.731Z,12.40
2019-03-31T10:42:08.954Z,13.20
2019-03-31T10:44:38.071Z,11.83
2019-03-31T10:47:07.357Z,13.45
2019-03-31T10:49:36.181Z,11.28
2019-03-31T10:52:05.131Z,10.68
2019-03-31T10:54:34.136Z,12.75
2019-03-31T10:57:03.071Z,11.55
2019-03-31T10:59:32.229Z,13.50
2019-03-31T11:02:01.303Z,12.70
2019-03-31T11:04:30.212Z,11.93
2019-03-31T11:07:03.270Z,11.88
2019-03-31T11:09:29.643Z,11.48
2019-03-31T11:11:58.853Z,12.05
2019-03-31T11:14:27.673Z,11.00
2019-03-31T11:16:56.637Z,11.20
2019-03-31T11:19:25.614Z,9.60
2019-03-31T11:21:56.115Z,11.35
2019-03-31T11:24:25.242Z,11.38
2019-03-31T11:26:55.861Z,11.85
2019-03-31T11:29:24.955Z,10.75
2019-03-31T11:31:54.033Z,11.48
2019-03-31T11:34:23.188Z,10.93
2019-03-31T11:36:52.225Z,10.35
2019-03-31T11:39:21.593Z,9.73
2019-03-31T11:41:50.594Z,10.90
2019-03-31T11:44:19.685Z,10.53
2019-03-31T11:46:48.694Z,10.58
2019-03-31T11:49:17.662Z,10.15
2019-03-31T11:51:46.738Z,10.43
2019-03-31T11:54:15.685Z,11.05
2019-03-31T11:56:44.909Z,9.33
2019-03-31T11:59:13.840Z,9.55
2019-03-31T12:01:42.940Z,10.20
2019-03-31T12:04:11.832Z,9.28
2019-03-31T12:06:40.854Z,8.83
2019-03-31T12:09:10.013Z,9.08
2019-03-31T12:11:39.055Z,8.08
2019-03-31T12:14:08.141Z,8.35
2019-03-31T12:16:37.009Z,7.78
2019-03-31T12:19:06.055Z,8.53
2019-03-31T12:21:35.172Z,9.43
2019-03-31T12:24:04.083Z,7.87
2019-03-31T12:26:33.085Z,8.63
2019-03-31T12:29:02.067Z,8.90
2019-03-31T12:31:31.242Z,8.40
2019-03-31T12:34:00.192Z,8.60
2019-03-31T12:36:29.403Z,8.53
2019-03-31T12:38:58.545Z,8.15
2019-03-31T12:41:27.746Z,8.28
2019-03-31T12:43:56.737Z,8.05
2019-03-31T12:46:25.904Z,7.80
2019-03-31T12:48:54.938Z,8.50
2019-03-31T12:51:24.081Z,8.10
2019-03-31T12:53:53.111Z,8.43
2019-03-31T12:56:22.163Z,8.45
2019-03-31T12:58:51.284Z,7.25
2019-03-31T13:01:20.159Z,7.67
2019-03-31T13:03:49.190Z,8.60
2019-03-31T13:06:18.327Z,7.45
2019-03-31T13:08:47.582Z,7.83
2019-03-31T13:11:16.757Z,8.03
2019-03-31T13:13:45.714Z,8.63
2019-03-31T13:16:14.851Z,7.22
2019-03-31T13:18:43.976Z,8.08
2019-03-31T13:21:13.012Z,7.50
2019-03-31T13:23:42.018Z,7.75
2019-03-31T13:26:11.194Z,8.30
2019-03-31T13:28:40.206Z,8.70
2019-03-31T13:31:09.312Z,7.78
2019-03-31T13:33:38.323Z,8.83
2019-03-31T13:36:07.229Z,8.03
2019-03-31T13:38:36.095Z,7.65
2019-03-31T13:41:06.570Z,8.10
2019-03-31T13:43:35.681Z,8.60
2019-03-31T13:46:04.631Z,8.90
2019-03-31T13:48:33.797Z,7.20
2019-03-31T13:51:02.928Z,7.80
2019-03-31T13:53:31.918Z,7.80
2019-03-31T13:56:01.075Z,8.38
2019-03-31T13:58:30.493Z,8.23
2019-03-31T14:01:00.165Z,7.95
2019-03-31T14:03:29.143Z,8.10
2019-03-31T14:05:58.277Z,7.92
2019-03-31T14:08:27.442Z,7.40
2019-03-31T14:10:56.517Z,7.58
2019-03-31T14:13:25.437Z,7.17
2019-03-31T14:15:54.975Z,6.75
2019-03-31T14:18:24.069Z,7.60
2019-03-31T14:20:52.962Z,7.22
2019-03-31T14:23:22.244Z,6.45
2019-03-31T14:25:51.603Z,5.78
2019-03-31T14:28:21.281Z,6.33
2019-03-31T14:30:50.479Z,6.12
2019-03-31T14:33:19.519Z,5.35
2019-03-31T14:35:48.352Z,5.60
2019-03-31T14:38:17.515Z,6.10
2019-03-31T14:40:46.649Z,5.62
2019-03-31T14:43:15.657Z,5.95
2019-03-31T14:45:44.668Z,6.25
2019-03-31T14:48:13.839Z,6.25
2019-03-31T14:50:42.698Z,5.12
2019-03-31T14:53:11.601Z,5.42
2019-03-31T14:55:40.520Z,5.78
2019-03-31T14:58:09.449Z,6.00
2019-03-31T15:00:38.562Z,5.65
2019-03-31T15:03:07.319Z,5.00
2019-03-31T15:05:36.408Z,5.85
2019-03-31T15:08:05.523Z,5.50
2019-03-31T15:10:34.682Z,5.35
2019-03-31T15:13:03.702Z,5.85
2019-03-31T15:15:32.811Z,5.20
2019-03-31T15:18:01.730Z,5.10
2019-03-31T15:20:30.740Z,5.70
2019-03-31T15:22:59.725Z,4.97
2019-03-31T15:25:28.981Z,4.87
2019-03-31T15:27:57.944Z,5.10
2019-03-31T15:30:26.987Z,4.42
2019-03-31T15:32:55.993Z,4.80
2019-03-31T15:35:25.185Z,4.37
2019-03-31T15:37:54.105Z,4.03
2019-03-31T15:40:23.058Z,4.58
2019-03-31T15:42:52.223Z,3.90
2019-03-31T15:45:21.375Z,3.47
2019-03-31T15:47:50.716Z,3.58
2019-03-31T15:50:19.724Z,3.60
2019-03-31T15:52:48.714Z,4.03
2019-03-31T15:55:17.711Z,3.20
2019-03-31T15:57:46.918Z,3.12
2019-03-31T16:00:16.510Z,3.42
2019-03-31T16:02:45.647Z,3.47
2019-03-31T16:05:14.724Z,3.00
2019-03-31T16:07:47.785Z,2.98
2019-03-31T16:10:16.846Z,3.08
2019-03-31T16:12:45.696Z,3.10
2019-03-31T16:15:15.374Z,3.00
2019-03-31T16:17:44.555Z,3.30
2019-03-31T16:20:13.752Z,3.55
2019-03-31T16:22:42.793Z,2.87
2019-03-31T16:25:19.511Z,3.20
2019-03-31T16:27:48.488Z,3.33
2019-03-31T16:30:17.748Z,3.00
2019-03-31T16:32:46.857Z,2.60
2019-03-31T16:35:16.026Z,2.72
2019-03-31T16:37:45.097Z,2.87
2019-03-31T16:40:14.050Z,2.87
2019-03-31T16:42:43.049Z,3.27
2019-03-31T16:45:12.028Z,3.08
2019-03-31T16:47:41.268Z,2.80
2019-03-31T16:50:10.639Z,2.95
2019-03-31T16:52:40.043Z,3.00
2019-03-31T16:55:10.167Z,3.00
2019-03-31T16:57:39.237Z,3.62
2019-03-31T17:00:08.268Z,3.12
2019-03-31T17:02:37.136Z,3.47
2019-03-31T17:05:20.780Z,2.70
2019-03-31T17:07:37.031Z,2.60
2019-03-31T17:10:07.613Z,2.50
2019-03-31T17:12:36.653Z,2.52
2019-03-31T17:15:07.474Z,2.60
2019-03-31T17:17:36.708Z,3.00
2019-03-31T17:20:06.697Z,3.00
2019-03-31T17:22:35.698Z,2.90
2019-03-31T17:25:05.055Z,3.22
2019-03-31T17:27:34.040Z,2.72
2019-03-31T17:30:02.910Z,3.00
2019-03-31T17:32:31.973Z,2.37
2019-03-31T17:35:01.144Z,3.05
2019-03-31T17:37:30.195Z,3.10
2019-03-31T17:40:05.822Z,2.80
2019-03-31T17:42:29.500Z,2.80
2019-03-31T17:44:58.583Z,3.37
2019-03-31T17:47:27.608Z,3.70
2019-03-31T17:49:56.755Z,2.47
2019-03-31T17:52:25.601Z,3.47
2019-03-31T17:54:54.674Z,3.40
2019-03-31T17:57:23.717Z,2.47
2019-03-31T17:59:52.850Z,2.65
2019-03-31T18:02:21.757Z,2.80
2019-03-31T18:04:50.922Z,2.62
2019-03-31T18:07:20.169Z,3.27
2019-03-31T18:09:49.234Z,2.60
2019-03-31T18:12:18.249Z,2.75
2019-03-31T18:14:47.344Z,2.60
2019-03-31T18:17:16.266Z,2.70
2019-03-31T18:19:45.188Z,2.08
2019-03-31T18:22:16.791Z,2.50
2019-03-31T18:24:44.652Z,2.90
2019-03-31T18:27:13.810Z,2.27
2019-03-31T18:29:43.011Z,3.02
2019-03-31T18:32:12.141Z,2.83
2019-03-31T18:34:41.214Z,2.08
2019-03-31T18:37:10.519Z,2.15
2019-03-31T18:39:39.645Z,2.15
2019-03-31T18:42:08.508Z,2.40
2019-03-31T18:44:37.754Z,2.00
2019-03-31T18:47:06.973Z,2.45
2019-03-31T18:49:36.218Z,2.62
2019-03-31T18:52:05.326Z,3.27
2019-03-31T18:54:36.242Z,2.45
2019-03-31T18:57:09.802Z,2.60
2019-03-31T18:59:42.850Z,2.50
2019-03-31T19:02:25.087Z,1.87
2019-03-31T19:04:54.861Z,2.25
2019-03-31T19:07:41.541Z,2.30
2019-03-31T19:10:27.214Z,2.12
2019-03-31T19:12:57.908Z,2.10
2019-03-31T19:15:44.453Z,2.20
2019-03-31T19:18:14.991Z,2.80
2019-03-31T19:20:51.412Z,1.65
2019-03-31T19:23:24.862Z,1.95
2019-03-31T19:26:07.286Z,2.25
2019-03-31T19:28:54.031Z,1.98
2019-03-31T19:31:27.577Z,1.62
2019-03-31T19:33:58.218Z,1.57
2019-03-31T19:36:31.397Z,1.90
2019-03-31T19:39:01.940Z,1.80
2019-03-31T19:41:41.268Z,1.95
2019-03-31T19:44:11.968Z,2.30
2019-03-31T19:46:45.501Z,2.10
2019-03-31T19:49:19.222Z,1.50
2019-03-31T19:51:50.042Z,1.98
2019-03-31T19:54:23.701Z,2.10
2019-03-31T19:57:02.828Z,2.22
2019-03-31T19:59:39.255Z,1.90
2019-03-31T20:02:25.169Z,2.27
2019-03-31T20:05:06.011Z,2.83
2019-03-31T20:07:45.580Z,2.17
2019-03-31T20:10:16.098Z,2.10
2019-03-31T20:13:02.899Z,2.40
2019-03-31T20:15:39.008Z,1.98
2019-03-31T20:18:09.657Z,2.05
2019-03-31T20:20:40.318Z,1.90
2019-03-31T20:23:22.731Z,2.60
2019-03-31T20:25:53.255Z,1.82
2019-03-31T20:28:40.202Z,2.00
2019-03-31T20:31:13.604Z,2.00
2019-03-31T20:33:50.121Z,2.05
2019-03-31T20:36:35.946Z,2.22
2019-03-31T20:39:18.333Z,2.83
2019-03-31T20:42:03.717Z,2.05
2019-03-31T20:44:32.662Z,2.12
2019-03-31T20:47:01.609Z,2.12
2019-03-31T20:49:30.629Z,2.00
2019-03-31T20:51:59.559Z,1.98
2019-03-31T20:54:28.956Z,1.80
2019-03-31T20:56:58.079Z,1.80
2019-03-31T20:59:27.143Z,2.10
2019-03-31T21:01:56.230Z,2.35
2019-03-31T21:04:25.373Z,2.37
2019-03-31T21:06:54.290Z,1.70
2019-03-31T21:09:23.427Z,1.92
2019-03-31T21:11:52.238Z,1.62
2019-03-31T21:14:21.377Z,2.00
2019-03-31T21:16:50.437Z,2.05
2019-03-31T21:19:19.519Z,2.00
2019-03-31T21:21:48.525Z,2.37
2019-03-31T21:24:17.776Z,2.33
2019-03-31T21:26:46.739Z,2.00
2019-03-31T21:29:15.809Z,2.35
2019-03-31T21:31:44.757Z,1.98
2019-03-31T21:34:13.909Z,2.87
2019-03-31T21:36:42.807Z,2.52
2019-03-31T21:39:11.901Z,2.17
2019-03-31T21:41:40.940Z,2.05
2019-03-31T21:44:09.844Z,2.35
2019-03-31T21:46:39.005Z,1.80
2019-03-31T21:49:08.062Z,1.60
2019-03-31T21:51:37.106Z,1.67
2019-03-31T21:54:06.094Z,1.82
2019-03-31T21:56:35.053Z,2.00
2019-03-31T21:59:04.119Z,1.87
2019-03-31T22:01:33.184Z,1.92
2019-03-31T22:04:02.388Z,2.10
2019-03-31T22:06:31.324Z,1.90
2019-03-31T22:09:00.319Z,2.22
2019-03-31T22:11:29.239Z,1.80
2019-03-31T22:13:58.323Z,2.30
2019-03-31T22:16:27.192Z,1.95
2019-03-31T22:18:56.250Z,1.95
2019-03-31T22:21:25.264Z,1.80
2019-03-31T22:23:58.145Z,2.33
2019-03-31T22:26:24.888Z,1.72
2019-03-31T22:28:54.086Z,2.00
2019-03-31T22:31:23.287Z,1.60
2019-03-31T22:33:52.288Z,3.02
2019-03-31T22:36:21.429Z,2.12
2019-03-31T22:38:51.765Z,1.95
2019-03-31T22:41:20.893Z,2.02
2019-03-31T22:43:50.292Z,1.87
2019-03-31T22:46:19.531Z,1.65
2019-03-31T22:48:48.709Z,1.42
2019-03-31T22:51:17.683Z,1.32
2019-03-31T22:53:46.639Z,1.90
2019-03-31T22:56:15.490Z,1.72
2019-03-31T22:58:44.593Z,1.65
2019-03-31T23:01:13.686Z,1.72
2019-03-31T23:03:43.092Z,2.00
2019-03-31T23:06:12.181Z,1.30
2019-03-31T23:08:41.115Z,1.90
2019-03-31T23:11:10.092Z,1.40
2019-03-31T23:13:39.169Z,1.37
2019-03-31T23:16:08.413Z,1.55
2019-03-31T23:18:37.282Z,2.20
2019-03-31T23:21:06.249Z,1.50
2019-03-31T23:23:35.257Z,2.08
2019-03-31T23:26:04.328Z,1.75
2019-03-31T23:28:33.250Z,1.77
2019-03-31T23:31:03.828Z,1.72
2019-03-31T23:33:33.042Z,1.98
2019-03-31T23:36:01.884Z,1.98
2019-03-31T23:38:30.938Z,1.62
2019-03-31T23:41:00.111Z,1.40
2019-03-31T23:43:29.072Z,1.70
2019-03-31T23:45:58.121Z,1.75
2019-03-31T23:48:27.106Z,1.57
2019-03-31T23:50:56.072Z,1.95
2019-03-31T23:53:25.240Z,1.85
2019-03-31T23:55:54.074Z,1.62
2019-03-31T23:58:22.980Z,2.22
